This is the latest recevied weather packets stored in our database for station/object AD4CG. If no packets are shown the sender has not sent any weather packets the latest 10 day(s).
| Time | Temp. | Humidity | Pressure | Rain* | Wind** | Luminosity | Snow |
|---|---|---|---|---|---|---|---|
| 1777597529 | 16.67° C | 100% | 1011.2 hPa | 0 mm | - | - | - |
| 1777596906 | 16.67° C | 100% | 1011.2 hPa | 0 mm | - | - | - |
| 1777593770 | 18.33° C | 100% | 1010.5 hPa | 0 mm | - | - | - |
| 1777590923 | 19.44° C | 92% | 1010.2 hPa | 0 mm | - | - | - |
| 1777588982 | 20.56° C | 81% | 1009.5 hPa | 0 mm | - | - | - |
| 1777588044 | 21.11° C | 68% | 1009.5 hPa | 0 mm | - | - | - |
| 1777586145 | 21.67° C | 61% | 1009.8 hPa | 0 mm | - | - | - |
| 1777585843 | 21.67° C | 62% | 1009.5 hPa | 0 mm | - | - | - |
| 1777583939 | 21.67° C | 63% | 1009.5 hPa | 0 mm | - | - | - |
| 1777583321 | 21.11° C | 64% | 1009.5 hPa | 0 mm | - | - | - |
| 1777583017 | 21.11° C | 64% | 1009.5 hPa | 0 mm | - | - | - |
| 1777582065 | 21.11° C | 64% | 1010.2 hPa | 0 mm | - | - | - |
| 1777581436 | 21.11° C | 64% | 1009.8 hPa | 0 mm | - | - | - |
| 1777578273 | 22.22° C | 57% | 1009.8 hPa | 0 mm | - | - | - |
| 1777577335 | 22.22° C | 56% | 1010.2 hPa | 0 mm | - | - | - |
| 1777573888 | 21.11° C | 72% | 1009.8 hPa | 0 mm | - | - | - |
| 1777572947 | 20.56° C | 80% | 1009.1 hPa | 0 mm | - | - | - |
| 1777572007 | 20.56° C | 78% | 1009.8 hPa | 0 mm | - | - | - |
| 1777569505 | 18.33° C | 94% | 1010.2 hPa | 0 mm | - | - | - |
| 1777568565 | 18.33° C | 100% | 1010.8 hPa | 0 mm | - | - | - |
| 1777567310 | 17.78° C | 100% | 1010.5 hPa | 0 mm | - | - | - |
| 1777566369 | 17.22° C | 100% | 1010.5 hPa | 0 mm | - | - | - |
| 1777565744 | 17.22° C | 100% | 1011.2 hPa | 0 mm | - | - | - |
| 1777565431 | 17.22° C | 100% | 1010.8 hPa | 0 mm | - | - | - |
| 1777564177 | 17.22° C | 100% | 1010.8 hPa | 0 mm | - | - | - |
* Rain latest hour (hover to see other rain measurements)
** Current wind speed in m/s (hover to see current wind gust speed)